NV63 weather

Claude I. Howard Heliport
Las Vegas, Nevada, United States

Public forecast

Using degrees Fahrenheit for public forecast. Weather courtesy of forecast.io.

METAR (pilot weather report)

Closest report is McCarran International Airport, 1.2 nm (2.2 km) E. Retrieved 2019/03/25 19:56 UTC (6 minutes ago):

KLAS 251956Z 00000KT 10SM FEW250 22/M03 A3015 RMK AO2 SLP198 T02171033

TAF (pilot weather forecast)

Closest forecast is McCarran International Airport, 1.2 nm (2.2 km) E. Retrieved 2019/03/25 18:24 UTC (2 hours ago):

TAF KLAS 251723Z 2518/2624 06005KT P6SM FEW250 FM251900 09007KT P6SM FEW250 FM260300 21008KT P6SM FEW250 FM261500 VRB05KT P6SM SCT250 FM261900 09007KT P6SM SCT250